Hazard, Nebraska
Current Conditions -  °F | °C
As of 3:55 AM on Saturday 29 Nov 2014 (Local Time) from KEAR Reporting Station
Clear Clear  
Wind Chill: 34°   Ceiling: Unl
Heat Index: 39°   Visibility: 10mi
Dew Point: 16°   Wind: 7mph
Humidity: 39%   Direction: 270°W
Pressure: 29.61"   Gusts: NA
Location:  41.09°N, 99.08°W
Report Text: KEAR 290955Z 27006KT 10SM CLR 04/M09 A2961 RMK AO1
Loading
Personal Weather Stations






























Interactive Weather Map New forecast layout! Learn more

10-Day Weather Forecast

Advertisements
Track Severe Weather on mobile